sensor_id;sensor_type;location;lat;lon;timestamp;P1;durP1;ratioP1;P2;durP2;ratioP2
48327;SDS011;34136;51.022;7.082;2022-12-18T00:01:51;14.77;;;7.87;;
48327;SDS011;34136;51.022;7.082;2022-12-18T00:04:59;15.70;;;7.97;;
48327;SDS011;34136;51.022;7.082;2022-12-18T00:08:04;16.13;;;7.87;;
48327;SDS011;34136;51.022;7.082;2022-12-18T00:10:50;13.87;;;7.37;;
48327;SDS011;34136;51.022;7.082;2022-12-18T00:13:36;13.83;;;7.33;;
48327;SDS011;34136;51.022;7.082;2022-12-18T00:16:24;13.97;;;7.50;;
48327;SDS011;34136;51.022;7.082;2022-12-18T00:19:11;17.73;;;7.93;;
48327;SDS011;34136;51.022;7.082;2022-12-18T00:22:16;13.63;;;8.33;;
48327;SDS011;34136;51.022;7.082;2022-12-18T00:25:22;17.33;;;8.30;;
48327;SDS011;34136;51.022;7.082;2022-12-18T00:28:09;17.17;;;9.00;;
48327;SDS011;34136;51.022;7.082;2022-12-18T00:31:04;14.50;;;7.77;;
48327;SDS011;34136;51.022;7.082;2022-12-18T00:34:20;15.07;;;8.00;;
48327;SDS011;34136;51.022;7.082;2022-12-18T00:37:08;12.50;;;7.73;;
48327;SDS011;34136;51.022;7.082;2022-12-18T00:40:06;14.27;;;7.50;;
48327;SDS011;34136;51.022;7.082;2022-12-18T00:43:13;15.30;;;7.97;;
48327;SDS011;34136;51.022;7.082;2022-12-18T00:46:07;13.10;;;7.30;;
48327;SDS011;34136;51.022;7.082;2022-12-18T00:48:57;12.87;;;6.77;;
48327;SDS011;34136;51.022;7.082;2022-12-18T00:51:46;14.17;;;8.63;;
48327;SDS011;34136;51.022;7.082;2022-12-18T00:54:36;15.97;;;7.47;;
48327;SDS011;34136;51.022;7.082;2022-12-18T00:57:23;14.53;;;7.60;;
48327;SDS011;34136;51.022;7.082;2022-12-18T01:00:11;14.83;;;7.87;;
48327;SDS011;34136;51.022;7.082;2022-12-18T01:03:00;15.05;;;7.90;;
48327;SDS011;34136;51.022;7.082;2022-12-18T01:05:46;15.53;;;7.33;;
48327;SDS011;34136;51.022;7.082;2022-12-18T01:08:33;18.77;;;7.93;;
48327;SDS011;34136;51.022;7.082;2022-12-18T01:11:20;15.30;;;8.27;;
48327;SDS011;34136;51.022;7.082;2022-12-18T01:14:08;13.00;;;7.43;;
48327;SDS011;34136;51.022;7.082;2022-12-18T01:17:04;19.23;;;8.77;;
48327;SDS011;34136;51.022;7.082;2022-12-18T01:20:09;18.67;;;8.10;;
48327;SDS011;34136;51.022;7.082;2022-12-18T01:23:06;14.90;;;7.53;;
48327;SDS011;34136;51.022;7.082;2022-12-18T01:26:12;13.37;;;7.53;;
48327;SDS011;34136;51.022;7.082;2022-12-18T01:29:19;13.60;;;7.93;;
48327;SDS011;34136;51.022;7.082;2022-12-18T01:32:24;15.10;;;7.90;;
48327;SDS011;34136;51.022;7.082;2022-12-18T01:35:11;14.87;;;7.93;;
48327;SDS011;34136;51.022;7.082;2022-12-18T01:37:58;12.70;;;6.80;;
48327;SDS011;34136;51.022;7.082;2022-12-18T01:40:44;13.77;;;7.63;;
48327;SDS011;34136;51.022;7.082;2022-12-18T01:43:41;10.93;;;6.87;;
48327;SDS011;34136;51.022;7.082;2022-12-18T01:46:31;12.57;;;6.87;;
48327;SDS011;34136;51.022;7.082;2022-12-18T01:49:20;13.83;;;7.37;;
48327;SDS011;34136;51.022;7.082;2022-12-18T01:52:07;12.53;;;7.63;;
48327;SDS011;34136;51.022;7.082;2022-12-18T01:54:53;11.20;;;6.67;;
48327;SDS011;34136;51.022;7.082;2022-12-18T01:57:59;16.93;;;7.87;;
48327;SDS011;34136;51.022;7.082;2022-12-18T02:00:47;12.67;;;7.03;;
48327;SDS011;34136;51.022;7.082;2022-12-18T02:03:36;14.23;;;7.40;;
48327;SDS011;34136;51.022;7.082;2022-12-18T02:06:44;14.30;;;7.30;;
48327;SDS011;34136;51.022;7.082;2022-12-18T02:09:48;14.02;;;7.18;;
48327;SDS011;34136;51.022;7.082;2022-12-18T02:16:01;14.67;;;7.40;;
48327;SDS011;34136;51.022;7.082;2022-12-18T02:18:59;14.67;;;6.70;;
48327;SDS011;34136;51.022;7.082;2022-12-18T02:25:40;11.30;;;5.80;;
48327;SDS011;34136;51.022;7.082;2022-12-18T02:29:23;13.13;;;7.27;;
48327;SDS011;34136;51.022;7.082;2022-12-18T02:31:57;13.97;;;6.40;;
48327;SDS011;34136;51.022;7.082;2022-12-18T02:34:49;13.40;;;6.53;;
48327;SDS011;34136;51.022;7.082;2022-12-18T02:37:37;12.30;;;6.53;;
48327;SDS011;34136;51.022;7.082;2022-12-18T02:40:26;14.27;;;7.33;;
48327;SDS011;34136;51.022;7.082;2022-12-18T02:43:14;11.83;;;6.73;;
48327;SDS011;34136;51.022;7.082;2022-12-18T02:46:20;14.17;;;7.00;;
48327;SDS011;34136;51.022;7.082;2022-12-18T02:53:14;13.43;;;6.93;;
48327;SDS011;34136;51.022;7.082;2022-12-18T02:59:09;12.77;;;6.20;;
48327;SDS011;34136;51.022;7.082;2022-12-18T03:02:11;10.77;;;5.97;;
48327;SDS011;34136;51.022;7.082;2022-12-18T03:11:25;12.07;;;6.80;;
48327;SDS011;34136;51.022;7.082;2022-12-18T03:14:19;10.17;;;5.53;;
48327;SDS011;34136;51.022;7.082;2022-12-18T03:17:15;13.03;;;6.37;;
48327;SDS011;34136;51.022;7.082;2022-12-18T03:20:26;10.20;;;6.13;;
48327;SDS011;34136;51.022;7.082;2022-12-18T03:23:37;11.03;;;5.83;;
48327;SDS011;34136;51.022;7.082;2022-12-18T03:29:29;12.43;;;6.13;;
48327;SDS011;34136;51.022;7.082;2022-12-18T03:32:29;12.53;;;6.40;;
48327;SDS011;34136;51.022;7.082;2022-12-18T03:35:24;9.93;;;5.43;;
48327;SDS011;34136;51.022;7.082;2022-12-18T03:38:18;11.10;;;6.07;;
48327;SDS011;34136;51.022;7.082;2022-12-18T03:51:10;9.67;;;5.87;;
48327;SDS011;34136;51.022;7.082;2022-12-18T03:54:15;9.07;;;5.60;;
48327;SDS011;34136;51.022;7.082;2022-12-18T03:57:18;10.13;;;5.67;;
48327;SDS011;34136;51.022;7.082;2022-12-18T04:00:13;11.20;;;5.47;;
48327;SDS011;34136;51.022;7.082;2022-12-18T04:03:23;9.70;;;5.50;;
48327;SDS011;34136;51.022;7.082;2022-12-18T04:06:10;12.00;;;5.70;;
48327;SDS011;34136;51.022;7.082;2022-12-18T04:08:59;12.33;;;6.30;;
48327;SDS011;34136;51.022;7.082;2022-12-18T04:11:47;9.97;;;5.43;;
48327;SDS011;34136;51.022;7.082;2022-12-18T04:14:35;9.37;;;5.63;;
48327;SDS011;34136;51.022;7.082;2022-12-18T04:17:23;9.67;;;5.70;;
48327;SDS011;34136;51.022;7.082;2022-12-18T04:20:11;12.47;;;5.70;;
48327;SDS011;34136;51.022;7.082;2022-12-18T04:23:04;7.77;;;4.90;;
48327;SDS011;34136;51.022;7.082;2022-12-18T04:25:52;10.43;;;5.17;;
48327;SDS011;34136;51.022;7.082;2022-12-18T04:28:52;9.20;;;4.97;;
48327;SDS011;34136;51.022;7.082;2022-12-18T04:31:55;9.30;;;5.20;;
48327;SDS011;34136;51.022;7.082;2022-12-18T04:34:58;9.87;;;4.63;;
48327;SDS011;34136;51.022;7.082;2022-12-18T04:37:47;10.93;;;5.93;;
48327;SDS011;34136;51.022;7.082;2022-12-18T04:40:46;8.20;;;4.88;;
48327;SDS011;34136;51.022;7.082;2022-12-18T04:43:45;7.90;;;4.73;;
48327;SDS011;34136;51.022;7.082;2022-12-18T04:46:47;15.10;;;5.60;;
48327;SDS011;34136;51.022;7.082;2022-12-18T04:49:33;9.73;;;5.70;;
48327;SDS011;34136;51.022;7.082;2022-12-18T04:52:20;9.87;;;5.27;;
48327;SDS011;34136;51.022;7.082;2022-12-18T04:55:06;9.33;;;5.37;;
48327;SDS011;34136;51.022;7.082;2022-12-18T04:57:54;10.30;;;5.60;;
48327;SDS011;34136;51.022;7.082;2022-12-18T05:00:43;10.27;;;5.57;;
48327;SDS011;34136;51.022;7.082;2022-12-18T05:03:30;9.30;;;5.53;;
48327;SDS011;34136;51.022;7.082;2022-12-18T05:06:16;10.77;;;5.60;;
48327;SDS011;34136;51.022;7.082;2022-12-18T05:09:07;8.77;;;5.05;;
48327;SDS011;34136;51.022;7.082;2022-12-18T05:11:54;10.43;;;5.13;;
48327;SDS011;34136;51.022;7.082;2022-12-18T05:14:43;8.37;;;5.73;;
48327;SDS011;34136;51.022;7.082;2022-12-18T05:17:32;9.00;;;5.27;;
48327;SDS011;34136;51.022;7.082;2022-12-18T05:20:19;11.70;;;5.80;;
48327;SDS011;34136;51.022;7.082;2022-12-18T05:23:08;10.23;;;5.50;;
48327;SDS011;34136;51.022;7.082;2022-12-18T05:25:58;11.50;;;5.70;;
48327;SDS011;34136;51.022;7.082;2022-12-18T05:28:46;12.33;;;6.70;;
48327;SDS011;34136;51.022;7.082;2022-12-18T05:31:36;10.23;;;5.67;;
48327;SDS011;34136;51.022;7.082;2022-12-18T05:34:22;9.60;;;5.60;;
48327;SDS011;34136;51.022;7.082;2022-12-18T05:37:12;11.93;;;6.37;;
48327;SDS011;34136;51.022;7.082;2022-12-18T05:39:58;11.87;;;5.97;;
48327;SDS011;34136;51.022;7.082;2022-12-18T05:42:52;11.57;;;6.20;;
48327;SDS011;34136;51.022;7.082;2022-12-18T05:45:38;12.17;;;5.67;;
48327;SDS011;34136;51.022;7.082;2022-12-18T05:48:25;11.47;;;5.87;;
48327;SDS011;34136;51.022;7.082;2022-12-18T05:51:14;11.50;;;6.53;;
48327;SDS011;34136;51.022;7.082;2022-12-18T05:54:02;9.77;;;5.63;;
48327;SDS011;34136;51.022;7.082;2022-12-18T05:56:48;10.47;;;5.93;;
48327;SDS011;34136;51.022;7.082;2022-12-18T05:59:35;12.77;;;6.50;;
48327;SDS011;34136;51.022;7.082;2022-12-18T06:02:21;11.23;;;6.07;;
48327;SDS011;34136;51.022;7.082;2022-12-18T06:05:08;13.43;;;7.27;;
48327;SDS011;34136;51.022;7.082;2022-12-18T06:07:57;11.97;;;6.80;;
48327;SDS011;34136;51.022;7.082;2022-12-18T06:10:49;9.30;;;5.97;;
48327;SDS011;34136;51.022;7.082;2022-12-18T06:13:37;9.37;;;5.53;;
48327;SDS011;34136;51.022;7.082;2022-12-18T06:16:23;11.63;;;6.80;;
48327;SDS011;34136;51.022;7.082;2022-12-18T06:19:17;12.50;;;6.30;;
48327;SDS011;34136;51.022;7.082;2022-12-18T06:22:06;11.07;;;6.43;;
48327;SDS011;34136;51.022;7.082;2022-12-18T06:24:52;12.03;;;6.90;;
48327;SDS011;34136;51.022;7.082;2022-12-18T06:27:39;14.23;;;6.33;;
48327;SDS011;34136;51.022;7.082;2022-12-18T06:30:26;12.10;;;6.43;;
48327;SDS011;34136;51.022;7.082;2022-12-18T06:33:12;10.33;;;6.27;;
48327;SDS011;34136;51.022;7.082;2022-12-18T06:36:00;11.53;;;7.10;;
48327;SDS011;34136;51.022;7.082;2022-12-18T06:38:48;10.20;;;6.23;;
48327;SDS011;34136;51.022;7.082;2022-12-18T06:41:35;11.73;;;7.07;;
48327;SDS011;34136;51.022;7.082;2022-12-18T06:44:21;14.50;;;7.77;;
48327;SDS011;34136;51.022;7.082;2022-12-18T06:47:07;12.27;;;6.47;;
48327;SDS011;34136;51.022;7.082;2022-12-18T06:49:54;14.07;;;6.83;;
48327;SDS011;34136;51.022;7.082;2022-12-18T06:52:40;12.27;;;6.87;;
48327;SDS011;34136;51.022;7.082;2022-12-18T06:55:27;13.63;;;7.20;;
48327;SDS011;34136;51.022;7.082;2022-12-18T06:58:23;12.60;;;7.23;;
48327;SDS011;34136;51.022;7.082;2022-12-18T07:01:13;15.70;;;6.93;;
48327;SDS011;34136;51.022;7.082;2022-12-18T07:03:59;14.30;;;7.80;;
48327;SDS011;34136;51.022;7.082;2022-12-18T07:06:48;16.93;;;7.80;;
48327;SDS011;34136;51.022;7.082;2022-12-18T07:09:37;14.53;;;7.30;;
48327;SDS011;34136;51.022;7.082;2022-12-18T07:12:23;13.17;;;7.43;;
48327;SDS011;34136;51.022;7.082;2022-12-18T07:15:16;15.00;;;7.63;;
48327;SDS011;34136;51.022;7.082;2022-12-18T07:18:03;12.87;;;7.93;;
48327;SDS011;34136;51.022;7.082;2022-12-18T07:20:49;11.70;;;6.90;;
48327;SDS011;34136;51.022;7.082;2022-12-18T07:23:36;12.07;;;7.57;;
48327;SDS011;34136;51.022;7.082;2022-12-18T07:26:22;12.77;;;7.60;;
48327;SDS011;34136;51.022;7.082;2022-12-18T07:29:09;16.17;;;8.33;;
48327;SDS011;34136;51.022;7.082;2022-12-18T07:32:14;15.67;;;8.50;;
48327;SDS011;34136;51.022;7.082;2022-12-18T07:35:19;12.67;;;7.63;;
48327;SDS011;34136;51.022;7.082;2022-12-18T07:38:05;14.23;;;7.97;;
48327;SDS011;34136;51.022;7.082;2022-12-18T07:40:51;15.43;;;8.17;;
48327;SDS011;34136;51.022;7.082;2022-12-18T07:43:56;15.97;;;8.77;;
48327;SDS011;34136;51.022;7.082;2022-12-18T07:46:42;13.03;;;6.90;;
48327;SDS011;34136;51.022;7.082;2022-12-18T07:49:28;13.53;;;7.80;;
48327;SDS011;34136;51.022;7.082;2022-12-18T07:52:14;13.77;;;7.97;;
48327;SDS011;34136;51.022;7.082;2022-12-18T07:55:00;13.20;;;8.17;;
48327;SDS011;34136;51.022;7.082;2022-12-18T07:58:05;14.37;;;7.93;;
48327;SDS011;34136;51.022;7.082;2022-12-18T08:01:11;16.23;;;8.40;;
48327;SDS011;34136;51.022;7.082;2022-12-18T08:03:58;14.83;;;7.37;;
48327;SDS011;34136;51.022;7.082;2022-12-18T08:06:44;15.23;;;8.37;;
48327;SDS011;34136;51.022;7.082;2022-12-18T08:09:30;15.00;;;7.87;;
48327;SDS011;34136;51.022;7.082;2022-12-18T08:12:17;11.23;;;6.43;;
48327;SDS011;34136;51.022;7.082;2022-12-18T08:15:03;15.33;;;8.40;;
48327;SDS011;34136;51.022;7.082;2022-12-18T08:17:50;13.83;;;8.07;;
48327;SDS011;34136;51.022;7.082;2022-12-18T08:20:54;14.73;;;7.50;;
48327;SDS011;34136;51.022;7.082;2022-12-18T08:24:00;15.43;;;7.57;;
48327;SDS011;34136;51.022;7.082;2022-12-18T08:26:47;15.03;;;7.80;;
48327;SDS011;34136;51.022;7.082;2022-12-18T08:29:33;16.40;;;7.70;;
48327;SDS011;34136;51.022;7.082;2022-12-18T08:32:20;12.87;;;7.93;;
48327;SDS011;34136;51.022;7.082;2022-12-18T08:35:27;15.33;;;7.80;;
48327;SDS011;34136;51.022;7.082;2022-12-18T08:38:23;14.97;;;7.60;;
48327;SDS011;34136;51.022;7.082;2022-12-18T08:41:10;13.87;;;7.50;;
48327;SDS011;34136;51.022;7.082;2022-12-18T08:43:58;14.70;;;7.90;;
48327;SDS011;34136;51.022;7.082;2022-12-18T08:46:44;13.13;;;7.70;;
48327;SDS011;34136;51.022;7.082;2022-12-18T08:49:30;13.47;;;7.50;;
48327;SDS011;34136;51.022;7.082;2022-12-18T08:52:17;13.83;;;7.47;;
48327;SDS011;34136;51.022;7.082;2022-12-18T08:55:04;12.83;;;8.23;;
48327;SDS011;34136;51.022;7.082;2022-12-18T08:57:51;14.17;;;7.53;;
48327;SDS011;34136;51.022;7.082;2022-12-18T09:00:37;12.60;;;8.03;;
48327;SDS011;34136;51.022;7.082;2022-12-18T09:03:41;13.97;;;7.83;;
48327;SDS011;34136;51.022;7.082;2022-12-18T09:06:28;13.60;;;7.57;;
48327;SDS011;34136;51.022;7.082;2022-12-18T09:09:14;12.93;;;7.63;;
48327;SDS011;34136;51.022;7.082;2022-12-18T09:12:00;13.23;;;7.60;;
48327;SDS011;34136;51.022;7.082;2022-12-18T09:14:46;13.10;;;7.67;;
48327;SDS011;34136;51.022;7.082;2022-12-18T09:17:32;15.27;;;8.23;;
48327;SDS011;34136;51.022;7.082;2022-12-18T09:20:19;13.47;;;7.77;;
48327;SDS011;34136;51.022;7.082;2022-12-18T09:23:05;11.17;;;6.80;;
48327;SDS011;34136;51.022;7.082;2022-12-18T09:25:58;14.03;;;7.20;;
48327;SDS011;34136;51.022;7.082;2022-12-18T09:28:44;11.32;;;7.20;;
48327;SDS011;34136;51.022;7.082;2022-12-18T09:31:31;13.73;;;8.27;;
48327;SDS011;34136;51.022;7.082;2022-12-18T09:34:17;12.70;;;8.27;;
48327;SDS011;34136;51.022;7.082;2022-12-18T09:37:03;10.90;;;7.87;;
48327;SDS011;34136;51.022;7.082;2022-12-18T09:40:16;14.90;;;7.60;;
48327;SDS011;34136;51.022;7.082;2022-12-18T09:43:05;14.33;;;8.40;;
48327;SDS011;34136;51.022;7.082;2022-12-18T09:45:53;13.73;;;7.77;;
48327;SDS011;34136;51.022;7.082;2022-12-18T09:48:47;14.20;;;7.63;;
48327;SDS011;34136;51.022;7.082;2022-12-18T09:51:37;11.33;;;7.47;;
48327;SDS011;34136;51.022;7.082;2022-12-18T09:54:56;12.83;;;7.90;;
48327;SDS011;34136;51.022;7.082;2022-12-18T09:57:54;12.97;;;7.83;;
48327;SDS011;34136;51.022;7.082;2022-12-18T10:00:45;14.73;;;8.93;;
48327;SDS011;34136;51.022;7.082;2022-12-18T10:03:32;15.90;;;7.93;;
48327;SDS011;34136;51.022;7.082;2022-12-18T10:06:20;15.00;;;8.10;;
48327;SDS011;34136;51.022;7.082;2022-12-18T10:09:28;13.30;;;7.07;;
48327;SDS011;34136;51.022;7.082;2022-12-18T10:12:44;12.63;;;6.97;;
48327;SDS011;34136;51.022;7.082;2022-12-18T10:22:11;15.23;;;8.07;;
48327;SDS011;34136;51.022;7.082;2022-12-18T10:25:23;12.13;;;7.37;;
48327;SDS011;34136;51.022;7.082;2022-12-18T10:28:24;12.83;;;7.20;;
48327;SDS011;34136;51.022;7.082;2022-12-18T10:31:16;11.63;;;7.20;;
48327;SDS011;34136;51.022;7.082;2022-12-18T10:34:04;11.77;;;7.05;;
48327;SDS011;34136;51.022;7.082;2022-12-18T10:36:54;11.80;;;7.03;;
48327;SDS011;34136;51.022;7.082;2022-12-18T10:39:43;12.73;;;7.70;;
48327;SDS011;34136;51.022;7.082;2022-12-18T10:42:29;12.43;;;8.03;;
48327;SDS011;34136;51.022;7.082;2022-12-18T10:45:16;12.20;;;7.03;;
48327;SDS011;34136;51.022;7.082;2022-12-18T10:48:03;12.43;;;7.70;;
48327;SDS011;34136;51.022;7.082;2022-12-18T10:50:50;11.27;;;7.10;;
48327;SDS011;34136;51.022;7.082;2022-12-18T10:53:37;13.67;;;7.87;;
48327;SDS011;34136;51.022;7.082;2022-12-18T10:56:26;13.90;;;7.37;;
48327;SDS011;34136;51.022;7.082;2022-12-18T10:59:32;13.23;;;7.63;;
48327;SDS011;34136;51.022;7.082;2022-12-18T11:02:37;14.77;;;7.93;;
48327;SDS011;34136;51.022;7.082;2022-12-18T11:05:42;13.43;;;8.47;;
48327;SDS011;34136;51.022;7.082;2022-12-18T11:08:28;13.53;;;7.80;;
48327;SDS011;34136;51.022;7.082;2022-12-18T11:11:21;13.27;;;7.63;;
48327;SDS011;34136;51.022;7.082;2022-12-18T11:17:33;12.50;;;7.80;;
48327;SDS011;34136;51.022;7.082;2022-12-18T11:20:30;12.77;;;8.13;;
48327;SDS011;34136;51.022;7.082;2022-12-18T11:23:20;13.07;;;8.10;;
48327;SDS011;34136;51.022;7.082;2022-12-18T11:26:35;15.13;;;8.70;;
48327;SDS011;34136;51.022;7.082;2022-12-18T11:29:40;16.80;;;8.67;;
48327;SDS011;34136;51.022;7.082;2022-12-18T11:32:32;13.97;;;8.47;;
48327;SDS011;34136;51.022;7.082;2022-12-18T11:38:46;13.60;;;8.90;;
48327;SDS011;34136;51.022;7.082;2022-12-18T11:41:55;14.80;;;9.37;;
48327;SDS011;34136;51.022;7.082;2022-12-18T11:45:01;18.40;;;8.93;;
48327;SDS011;34136;51.022;7.082;2022-12-18T11:48:04;14.60;;;9.13;;
48327;SDS011;34136;51.022;7.082;2022-12-18T11:51:09;14.87;;;9.57;;
48327;SDS011;34136;51.022;7.082;2022-12-18T11:54:01;13.70;;;8.57;;
48327;SDS011;34136;51.022;7.082;2022-12-18T11:56:56;15.37;;;9.77;;
48327;SDS011;34136;51.022;7.082;2022-12-18T12:06:08;14.37;;;9.27;;
48327;SDS011;34136;51.022;7.082;2022-12-18T12:09:28;15.63;;;10.17;;
48327;SDS011;34136;51.022;7.082;2022-12-18T12:12:54;19.93;;;10.60;;
48327;SDS011;34136;51.022;7.082;2022-12-18T12:18:46;17.93;;;10.90;;
48327;SDS011;34136;51.022;7.082;2022-12-18T12:21:47;18.87;;;10.00;;
48327;SDS011;34136;51.022;7.082;2022-12-18T12:25:02;18.70;;;10.97;;
48327;SDS011;34136;51.022;7.082;2022-12-18T12:28:17;18.87;;;10.73;;
48327;SDS011;34136;51.022;7.082;2022-12-18T12:34:21;18.43;;;11.67;;
48327;SDS011;34136;51.022;7.082;2022-12-18T12:40:23;18.33;;;11.77;;
48327;SDS011;34136;51.022;7.082;2022-12-18T12:46:19;20.93;;;11.47;;
48327;SDS011;34136;51.022;7.082;2022-12-18T12:49:16;20.40;;;11.97;;
48327;SDS011;34136;51.022;7.082;2022-12-18T12:52:10;20.20;;;11.93;;
48327;SDS011;34136;51.022;7.082;2022-12-18T12:55:15;19.27;;;11.50;;
48327;SDS011;34136;51.022;7.082;2022-12-18T12:58:33;20.23;;;10.70;;
48327;SDS011;34136;51.022;7.082;2022-12-18T13:04:34;18.57;;;11.40;;
48327;SDS011;34136;51.022;7.082;2022-12-18T13:07:26;21.38;;;12.43;;
48327;SDS011;34136;51.022;7.082;2022-12-18T13:10:26;20.10;;;11.98;;
48327;SDS011;34136;51.022;7.082;2022-12-18T13:13:15;19.73;;;12.83;;
48327;SDS011;34136;51.022;7.082;2022-12-18T13:16:06;19.63;;;12.67;;
48327;SDS011;34136;51.022;7.082;2022-12-18T13:18:54;26.17;;;13.30;;
